Terminal Aerodrome Forecast
Issued by NWS

Home | Current Version | Previous Version | Text Only | Print | Product List | Glossary On
Versions: 1 2 3 4 5 6 7 8 9 10 11 12 13
400
FTUS42 KTBW 241351 AAA
TAFLAL
TAF AMD
KLAL 241351Z 2414/2512 09005KT P6SM SCT020 BKN250
      TEMPO 2414/2416 BKN020
     FM241800 10007KT P6SM VCTS SCT035CB BKN060
     FM250200 VRB03KT P6SM SCT020 BKN250=

USA.gov is the U.S. government's official web portal to all federal, state and local government web resources and services.